sensor_id;sensor_type;location;lat;lon;timestamp;P1;durP1;ratioP1;P2;durP2;ratioP2
23187;SDS011;11762;59.878;17.686;2023-04-24T00:01:33;3.10;;;0.33;;
23187;SDS011;11762;59.878;17.686;2023-04-24T00:04:03;0.63;;;0.23;;
23187;SDS011;11762;59.878;17.686;2023-04-24T00:06:31;0.63;;;0.30;;
23187;SDS011;11762;59.878;17.686;2023-04-24T00:08:59;0.53;;;0.30;;
23187;SDS011;11762;59.878;17.686;2023-04-24T00:11:26;1.93;;;0.30;;
23187;SDS011;11762;59.878;17.686;2023-04-24T00:13:53;0.40;;;0.23;;
23187;SDS011;11762;59.878;17.686;2023-04-24T00:16:20;0.67;;;0.40;;
23187;SDS011;11762;59.878;17.686;2023-04-24T00:18:49;0.47;;;0.30;;
23187;SDS011;11762;59.878;17.686;2023-04-24T00:21:19;2.53;;;0.37;;
23187;SDS011;11762;59.878;17.686;2023-04-24T00:23:46;1.00;;;0.50;;
23187;SDS011;11762;59.878;17.686;2023-04-24T00:26:14;2.37;;;0.50;;
23187;SDS011;11762;59.878;17.686;2023-04-24T00:28:41;1.53;;;0.40;;
23187;SDS011;11762;59.878;17.686;2023-04-24T00:31:08;1.77;;;0.53;;
23187;SDS011;11762;59.878;17.686;2023-04-24T00:33:35;1.47;;;0.70;;
23187;SDS011;11762;59.878;17.686;2023-04-24T00:36:02;2.80;;;0.53;;
23187;SDS011;11762;59.878;17.686;2023-04-24T00:38:31;1.50;;;0.63;;
23187;SDS011;11762;59.878;17.686;2023-04-24T00:40:58;2.70;;;0.50;;
23187;SDS011;11762;59.878;17.686;2023-04-24T00:43:25;0.90;;;0.53;;
23187;SDS011;11762;59.878;17.686;2023-04-24T00:45:52;1.57;;;0.63;;
23187;SDS011;11762;59.878;17.686;2023-04-24T00:48:20;2.40;;;0.90;;
23187;SDS011;11762;59.878;17.686;2023-04-24T00:50:47;1.57;;;0.90;;
23187;SDS011;11762;59.878;17.686;2023-04-24T00:53:14;1.50;;;0.57;;
23187;SDS011;11762;59.878;17.686;2023-04-24T00:55:43;2.70;;;1.27;;
23187;SDS011;11762;59.878;17.686;2023-04-24T00:58:10;2.00;;;1.30;;
23187;SDS011;11762;59.878;17.686;2023-04-24T01:00:37;3.33;;;1.27;;
23187;SDS011;11762;59.878;17.686;2023-04-24T01:03:05;3.30;;;1.53;;
23187;SDS011;11762;59.878;17.686;2023-04-24T01:05:33;3.33;;;1.60;;
23187;SDS011;11762;59.878;17.686;2023-04-24T01:08:01;4.20;;;2.33;;
23187;SDS011;11762;59.878;17.686;2023-04-24T01:10:28;5.50;;;2.90;;
23187;SDS011;11762;59.878;17.686;2023-04-24T01:12:59;3.80;;;2.13;;
23187;SDS011;11762;59.878;17.686;2023-04-24T01:15:26;4.67;;;2.40;;
23187;SDS011;11762;59.878;17.686;2023-04-24T01:17:53;4.00;;;2.40;;
23187;SDS011;11762;59.878;17.686;2023-04-24T01:20:21;6.07;;;2.50;;
23187;SDS011;11762;59.878;17.686;2023-04-24T01:22:51;4.57;;;2.60;;
23187;SDS011;11762;59.878;17.686;2023-04-24T01:25:18;4.17;;;2.43;;
23187;SDS011;11762;59.878;17.686;2023-04-24T01:27:45;5.50;;;2.80;;
23187;SDS011;11762;59.878;17.686;2023-04-24T01:30:12;5.97;;;3.03;;
23187;SDS011;11762;59.878;17.686;2023-04-24T01:32:40;6.30;;;3.27;;
23187;SDS011;11762;59.878;17.686;2023-04-24T01:35:10;6.30;;;2.70;;
23187;SDS011;11762;59.878;17.686;2023-04-24T01:37:37;7.13;;;2.77;;
23187;SDS011;11762;59.878;17.686;2023-04-24T01:40:06;6.23;;;2.90;;
23187;SDS011;11762;59.878;17.686;2023-04-24T01:42:34;6.10;;;2.87;;
23187;SDS011;11762;59.878;17.686;2023-04-24T01:45:02;6.93;;;3.43;;
23187;SDS011;11762;59.878;17.686;2023-04-24T01:47:30;6.73;;;2.90;;
23187;SDS011;11762;59.878;17.686;2023-04-24T01:49:58;5.30;;;2.70;;
23187;SDS011;11762;59.878;17.686;2023-04-24T01:52:25;8.57;;;2.80;;
23187;SDS011;11762;59.878;17.686;2023-04-24T01:54:53;4.90;;;2.70;;
23187;SDS011;11762;59.878;17.686;2023-04-24T01:57:22;5.97;;;3.07;;
23187;SDS011;11762;59.878;17.686;2023-04-24T01:59:50;6.53;;;2.80;;
23187;SDS011;11762;59.878;17.686;2023-04-24T02:02:17;5.43;;;2.33;;
23187;SDS011;11762;59.878;17.686;2023-04-24T02:04:46;7.60;;;2.33;;
23187;SDS011;11762;59.878;17.686;2023-04-24T02:07:13;7.43;;;2.20;;
23187;SDS011;11762;59.878;17.686;2023-04-24T02:09:40;5.73;;;2.30;;
23187;SDS011;11762;59.878;17.686;2023-04-24T02:12:07;6.27;;;2.60;;
23187;SDS011;11762;59.878;17.686;2023-04-24T02:14:35;4.53;;;2.30;;
23187;SDS011;11762;59.878;17.686;2023-04-24T02:17:02;5.53;;;2.40;;
23187;SDS011;11762;59.878;17.686;2023-04-24T02:19:30;4.00;;;2.13;;
23187;SDS011;11762;59.878;17.686;2023-04-24T02:21:57;4.43;;;2.47;;
23187;SDS011;11762;59.878;17.686;2023-04-24T02:24:24;6.03;;;2.40;;
23187;SDS011;11762;59.878;17.686;2023-04-24T02:26:51;6.30;;;2.67;;
23187;SDS011;11762;59.878;17.686;2023-04-24T02:29:18;4.70;;;2.20;;
23187;SDS011;11762;59.878;17.686;2023-04-24T02:31:47;5.00;;;2.50;;
23187;SDS011;11762;59.878;17.686;2023-04-24T02:34:15;4.33;;;2.20;;
23187;SDS011;11762;59.878;17.686;2023-04-24T02:36:42;4.23;;;2.53;;
23187;SDS011;11762;59.878;17.686;2023-04-24T02:39:09;4.67;;;2.60;;
23187;SDS011;11762;59.878;17.686;2023-04-24T02:41:36;3.97;;;2.40;;
23187;SDS011;11762;59.878;17.686;2023-04-24T02:44:03;5.03;;;2.43;;
23187;SDS011;11762;59.878;17.686;2023-04-24T02:46:30;4.57;;;2.83;;
23187;SDS011;11762;59.878;17.686;2023-04-24T02:48:59;5.83;;;2.47;;
23187;SDS011;11762;59.878;17.686;2023-04-24T02:51:26;5.53;;;2.90;;
23187;SDS011;11762;59.878;17.686;2023-04-24T02:53:53;6.07;;;2.90;;
23187;SDS011;11762;59.878;17.686;2023-04-24T02:56:20;5.83;;;2.90;;
23187;SDS011;11762;59.878;17.686;2023-04-24T02:58:47;6.30;;;3.53;;
23187;SDS011;11762;59.878;17.686;2023-04-24T03:01:14;5.90;;;3.47;;
23187;SDS011;11762;59.878;17.686;2023-04-24T03:03:41;6.87;;;3.83;;
23187;SDS011;11762;59.878;17.686;2023-04-24T03:06:10;6.33;;;3.23;;
23187;SDS011;11762;59.878;17.686;2023-04-24T03:08:37;7.63;;;3.17;;
23187;SDS011;11762;59.878;17.686;2023-04-24T03:11:04;5.53;;;3.43;;
23187;SDS011;11762;59.878;17.686;2023-04-24T03:13:31;8.70;;;4.00;;
23187;SDS011;11762;59.878;17.686;2023-04-24T03:15:57;8.77;;;4.40;;
23187;SDS011;11762;59.878;17.686;2023-04-24T03:18:24;7.80;;;3.90;;
23187;SDS011;11762;59.878;17.686;2023-04-24T03:20:52;8.43;;;4.37;;
23187;SDS011;11762;59.878;17.686;2023-04-24T03:23:20;9.97;;;4.43;;
23187;SDS011;11762;59.878;17.686;2023-04-24T03:25:47;9.10;;;5.33;;
23187;SDS011;11762;59.878;17.686;2023-04-24T03:28:14;8.37;;;4.93;;
23187;SDS011;11762;59.878;17.686;2023-04-24T03:30:41;8.70;;;4.80;;
23187;SDS011;11762;59.878;17.686;2023-04-24T03:33:08;9.10;;;4.70;;
23187;SDS011;11762;59.878;17.686;2023-04-24T03:35:35;9.73;;;4.73;;
23187;SDS011;11762;59.878;17.686;2023-04-24T03:38:02;9.00;;;5.37;;
23187;SDS011;11762;59.878;17.686;2023-04-24T03:40:31;9.60;;;5.10;;
23187;SDS011;11762;59.878;17.686;2023-04-24T03:42:59;8.87;;;4.63;;
23187;SDS011;11762;59.878;17.686;2023-04-24T03:45:26;9.27;;;4.70;;
23187;SDS011;11762;59.878;17.686;2023-04-24T03:47:53;7.10;;;4.40;;
23187;SDS011;11762;59.878;17.686;2023-04-24T03:50:20;10.87;;;5.17;;
23187;SDS011;11762;59.878;17.686;2023-04-24T03:52:47;10.20;;;4.57;;
23187;SDS011;11762;59.878;17.686;2023-04-24T03:55:14;9.47;;;4.63;;
23187;SDS011;11762;59.878;17.686;2023-04-24T03:57:43;9.17;;;5.17;;
23187;SDS011;11762;59.878;17.686;2023-04-24T04:00:11;11.83;;;5.63;;
23187;SDS011;11762;59.878;17.686;2023-04-24T04:02:39;11.00;;;5.90;;
23187;SDS011;11762;59.878;17.686;2023-04-24T04:05:06;8.67;;;5.20;;
23187;SDS011;11762;59.878;17.686;2023-04-24T04:07:33;11.37;;;5.63;;
23187;SDS011;11762;59.878;17.686;2023-04-24T04:10:00;9.67;;;5.20;;
23187;SDS011;11762;59.878;17.686;2023-04-24T04:12:28;13.83;;;6.27;;
23187;SDS011;11762;59.878;17.686;2023-04-24T04:14:57;15.80;;;6.57;;
23187;SDS011;11762;59.878;17.686;2023-04-24T04:17:23;10.10;;;5.53;;
23187;SDS011;11762;59.878;17.686;2023-04-24T04:19:51;15.83;;;6.03;;
23187;SDS011;11762;59.878;17.686;2023-04-24T04:22:18;11.07;;;5.87;;
23187;SDS011;11762;59.878;17.686;2023-04-24T04:24:45;16.70;;;5.37;;
23187;SDS011;11762;59.878;17.686;2023-04-24T04:27:12;10.87;;;4.93;;
23187;SDS011;11762;59.878;17.686;2023-04-24T04:29:39;9.90;;;5.53;;
23187;SDS011;11762;59.878;17.686;2023-04-24T04:32:07;11.23;;;4.90;;
23187;SDS011;11762;59.878;17.686;2023-04-24T04:34:34;7.93;;;4.47;;
23187;SDS011;11762;59.878;17.686;2023-04-24T04:37:02;10.00;;;4.97;;
23187;SDS011;11762;59.878;17.686;2023-04-24T04:39:29;15.27;;;5.20;;
23187;SDS011;11762;59.878;17.686;2023-04-24T04:41:56;10.50;;;4.27;;
23187;SDS011;11762;59.878;17.686;2023-04-24T04:44:23;11.77;;;5.80;;
23187;SDS011;11762;59.878;17.686;2023-04-24T04:46:52;13.97;;;4.90;;
23187;SDS011;11762;59.878;17.686;2023-04-24T04:49:22;8.83;;;4.27;;
23187;SDS011;11762;59.878;17.686;2023-04-24T04:51:50;11.70;;;4.20;;
23187;SDS011;11762;59.878;17.686;2023-04-24T04:54:17;6.93;;;3.97;;
23187;SDS011;11762;59.878;17.686;2023-04-24T04:56:44;7.53;;;4.10;;
23187;SDS011;11762;59.878;17.686;2023-04-24T04:59:11;10.63;;;5.27;;
23187;SDS011;11762;59.878;17.686;2023-04-24T05:01:38;10.10;;;4.00;;
23187;SDS011;11762;59.878;17.686;2023-04-24T05:04:05;9.90;;;4.93;;
23187;SDS011;11762;59.878;17.686;2023-04-24T05:06:34;11.50;;;4.87;;
23187;SDS011;11762;59.878;17.686;2023-04-24T05:09:01;12.70;;;5.87;;
23187;SDS011;11762;59.878;17.686;2023-04-24T05:11:29;12.37;;;5.97;;
23187;SDS011;11762;59.878;17.686;2023-04-24T05:13:56;11.70;;;5.80;;
23187;SDS011;11762;59.878;17.686;2023-04-24T05:16:23;15.47;;;6.43;;
23187;SDS011;11762;59.878;17.686;2023-04-24T05:18:50;12.27;;;5.70;;
23187;SDS011;11762;59.878;17.686;2023-04-24T05:21:17;14.87;;;6.03;;
23187;SDS011;11762;59.878;17.686;2023-04-24T05:23:45;14.63;;;5.90;;
23187;SDS011;11762;59.878;17.686;2023-04-24T05:26:13;16.10;;;6.17;;
23187;SDS011;11762;59.878;17.686;2023-04-24T05:28:40;13.37;;;6.00;;
23187;SDS011;11762;59.878;17.686;2023-04-24T05:31:07;11.47;;;5.20;;
23187;SDS011;11762;59.878;17.686;2023-04-24T05:33:35;9.80;;;5.00;;
23187;SDS011;11762;59.878;17.686;2023-04-24T05:36:02;10.57;;;5.30;;
23187;SDS011;11762;59.878;17.686;2023-04-24T05:38:30;10.53;;;5.03;;
23187;SDS011;11762;59.878;17.686;2023-04-24T05:40:59;11.97;;;5.60;;
23187;SDS011;11762;59.878;17.686;2023-04-24T05:43:26;10.33;;;4.87;;
23187;SDS011;11762;59.878;17.686;2023-04-24T05:45:53;10.67;;;5.13;;
23187;SDS011;11762;59.878;17.686;2023-04-24T05:48:20;12.27;;;4.87;;
23187;SDS011;11762;59.878;17.686;2023-04-24T05:50:48;11.37;;;4.80;;
23187;SDS011;11762;59.878;17.686;2023-04-24T05:53:15;9.90;;;4.77;;
23187;SDS011;11762;59.878;17.686;2023-04-24T05:55:42;9.03;;;4.60;;
23187;SDS011;11762;59.878;17.686;2023-04-24T05:58:11;8.37;;;4.47;;
23187;SDS011;11762;59.878;17.686;2023-04-24T06:00:39;8.87;;;4.27;;
23187;SDS011;11762;59.878;17.686;2023-04-24T06:03:07;10.53;;;4.27;;
23187;SDS011;11762;59.878;17.686;2023-04-24T06:05:35;8.53;;;3.97;;
23187;SDS011;11762;59.878;17.686;2023-04-24T06:08:02;8.00;;;4.17;;
23187;SDS011;11762;59.878;17.686;2023-04-24T06:10:29;11.93;;;4.00;;
23187;SDS011;11762;59.878;17.686;2023-04-24T06:12:56;9.90;;;4.50;;
23187;SDS011;11762;59.878;17.686;2023-04-24T06:15:27;7.57;;;3.80;;
23187;SDS011;11762;59.878;17.686;2023-04-24T06:17:55;8.03;;;3.60;;
23187;SDS011;11762;59.878;17.686;2023-04-24T06:20:22;8.90;;;4.00;;
23187;SDS011;11762;59.878;17.686;2023-04-24T06:22:49;8.53;;;4.10;;
23187;SDS011;11762;59.878;17.686;2023-04-24T06:25:16;10.63;;;4.43;;
23187;SDS011;11762;59.878;17.686;2023-04-24T06:27:44;9.73;;;4.43;;
23187;SDS011;11762;59.878;17.686;2023-04-24T06:30:11;8.53;;;4.30;;
23187;SDS011;11762;59.878;17.686;2023-04-24T06:32:40;12.03;;;5.30;;
23187;SDS011;11762;59.878;17.686;2023-04-24T06:35:07;9.57;;;3.93;;
23187;SDS011;11762;59.878;17.686;2023-04-24T06:37:36;9.47;;;4.30;;
23187;SDS011;11762;59.878;17.686;2023-04-24T06:40:03;11.43;;;5.20;;
23187;SDS011;11762;59.878;17.686;2023-04-24T06:42:31;14.10;;;5.33;;
23187;SDS011;11762;59.878;17.686;2023-04-24T06:45:00;8.43;;;4.33;;
23187;SDS011;11762;59.878;17.686;2023-04-24T06:47:27;5.80;;;2.90;;
23187;SDS011;11762;59.878;17.686;2023-04-24T06:49:55;9.57;;;3.73;;
23187;SDS011;11762;59.878;17.686;2023-04-24T06:52:22;8.93;;;3.40;;
23187;SDS011;11762;59.878;17.686;2023-04-24T06:54:49;8.07;;;3.63;;
23187;SDS011;11762;59.878;17.686;2023-04-24T06:57:17;8.33;;;3.67;;
23187;SDS011;11762;59.878;17.686;2023-04-24T06:59:44;7.67;;;3.73;;
23187;SDS011;11762;59.878;17.686;2023-04-24T07:02:11;9.17;;;4.07;;
23187;SDS011;11762;59.878;17.686;2023-04-24T07:04:38;6.93;;;3.53;;
23187;SDS011;11762;59.878;17.686;2023-04-24T07:07:06;5.33;;;2.93;;
23187;SDS011;11762;59.878;17.686;2023-04-24T07:09:34;7.83;;;3.37;;
23187;SDS011;11762;59.878;17.686;2023-04-24T07:12:03;8.53;;;3.37;;
23187;SDS011;11762;59.878;17.686;2023-04-24T07:14:30;6.30;;;2.80;;
23187;SDS011;11762;59.878;17.686;2023-04-24T07:16:57;5.37;;;2.50;;
23187;SDS011;11762;59.878;17.686;2023-04-24T07:19:24;6.83;;;2.37;;
23187;SDS011;11762;59.878;17.686;2023-04-24T07:21:51;6.63;;;3.23;;
23187;SDS011;11762;59.878;17.686;2023-04-24T07:24:21;5.13;;;2.70;;
23187;SDS011;11762;59.878;17.686;2023-04-24T07:26:48;8.63;;;2.73;;
23187;SDS011;11762;59.878;17.686;2023-04-24T07:29:17;7.13;;;2.93;;
23187;SDS011;11762;59.878;17.686;2023-04-24T07:31:44;7.33;;;2.83;;
23187;SDS011;11762;59.878;17.686;2023-04-24T07:34:11;5.67;;;2.50;;
23187;SDS011;11762;59.878;17.686;2023-04-24T07:36:38;4.93;;;2.50;;
23187;SDS011;11762;59.878;17.686;2023-04-24T07:39:06;5.20;;;2.30;;
23187;SDS011;11762;59.878;17.686;2023-04-24T07:41:35;7.47;;;2.63;;
23187;SDS011;11762;59.878;17.686;2023-04-24T07:44:03;5.23;;;2.10;;
23187;SDS011;11762;59.878;17.686;2023-04-24T07:46:30;5.83;;;2.17;;
23187;SDS011;11762;59.878;17.686;2023-04-24T07:48:57;4.73;;;2.20;;
23187;SDS011;11762;59.878;17.686;2023-04-24T07:51:26;4.23;;;1.90;;
23187;SDS011;11762;59.878;17.686;2023-04-24T07:53:53;5.83;;;2.53;;
23187;SDS011;11762;59.878;17.686;2023-04-24T07:56:21;4.73;;;2.37;;
23187;SDS011;11762;59.878;17.686;2023-04-24T07:58:49;4.27;;;2.53;;
23187;SDS011;11762;59.878;17.686;2023-04-24T08:01:16;6.57;;;2.33;;
23187;SDS011;11762;59.878;17.686;2023-04-24T08:03:43;4.63;;;2.60;;
23187;SDS011;11762;59.878;17.686;2023-04-24T08:06:10;5.50;;;2.60;;
23187;SDS011;11762;59.878;17.686;2023-04-24T08:08:38;5.47;;;3.00;;
23187;SDS011;11762;59.878;17.686;2023-04-24T08:11:05;8.77;;;2.70;;
23187;SDS011;11762;59.878;17.686;2023-04-24T08:13:32;5.67;;;3.03;;
23187;SDS011;11762;59.878;17.686;2023-04-24T08:16:00;5.00;;;2.50;;
23187;SDS011;11762;59.878;17.686;2023-04-24T08:18:27;5.20;;;2.70;;
23187;SDS011;11762;59.878;17.686;2023-04-24T08:20:54;4.63;;;2.53;;
23187;SDS011;11762;59.878;17.686;2023-04-24T08:23:26;5.07;;;2.00;;
23187;SDS011;11762;59.878;17.686;2023-04-24T08:25:54;4.17;;;2.20;;
23187;SDS011;11762;59.878;17.686;2023-04-24T08:28:21;3.80;;;2.20;;
23187;SDS011;11762;59.878;17.686;2023-04-24T08:30:48;6.00;;;2.73;;
23187;SDS011;11762;59.878;17.686;2023-04-24T08:33:21;5.03;;;2.83;;
23187;SDS011;11762;59.878;17.686;2023-04-24T08:35:48;8.13;;;2.87;;
23187;SDS011;11762;59.878;17.686;2023-04-24T08:38:15;5.13;;;3.03;;
23187;SDS011;11762;59.878;17.686;2023-04-24T08:40:43;4.83;;;2.77;;
23187;SDS011;11762;59.878;17.686;2023-04-24T08:43:11;5.77;;;3.27;;
23187;SDS011;11762;59.878;17.686;2023-04-24T08:45:39;6.20;;;2.67;;
23187;SDS011;11762;59.878;17.686;2023-04-24T08:48:07;4.90;;;3.17;;
23187;SDS011;11762;59.878;17.686;2023-04-24T08:50:36;7.33;;;3.30;;
23187;SDS011;11762;59.878;17.686;2023-04-24T08:53:06;5.77;;;3.50;;
23187;SDS011;11762;59.878;17.686;2023-04-24T08:55:34;5.90;;;2.87;;
23187;SDS011;11762;59.878;17.686;2023-04-24T08:58:03;5.93;;;2.50;;
23187;SDS011;11762;59.878;17.686;2023-04-24T09:00:30;5.33;;;2.63;;
23187;SDS011;11762;59.878;17.686;2023-04-24T09:03:00;6.67;;;2.60;;
23187;SDS011;11762;59.878;17.686;2023-04-24T09:05:28;5.67;;;3.20;;
23187;SDS011;11762;59.878;17.686;2023-04-24T09:07:57;5.57;;;3.03;;
23187;SDS011;11762;59.878;17.686;2023-04-24T09:10:25;7.03;;;3.03;;
23187;SDS011;11762;59.878;17.686;2023-04-24T09:12:55;4.53;;;2.90;;
23187;SDS011;11762;59.878;17.686;2023-04-24T09:15:26;7.90;;;3.33;;
23187;SDS011;11762;59.878;17.686;2023-04-24T09:17:54;5.33;;;2.77;;
23187;SDS011;11762;59.878;17.686;2023-04-24T09:20:22;3.57;;;2.27;;
23187;SDS011;11762;59.878;17.686;2023-04-24T09:22:52;4.83;;;2.73;;
23187;SDS011;11762;59.878;17.686;2023-04-24T09:25:22;4.70;;;2.80;;
23187;SDS011;11762;59.878;17.686;2023-04-24T09:27:57;4.27;;;2.90;;
23187;SDS011;11762;59.878;17.686;2023-04-24T09:30:27;5.53;;;2.80;;
23187;SDS011;11762;59.878;17.686;2023-04-24T09:35:40;5.93;;;3.20;;
23187;SDS011;11762;59.878;17.686;2023-04-24T09:38:08;6.83;;;2.43;;
23187;SDS011;11762;59.878;17.686;2023-04-24T09:40:36;10.63;;;3.03;;
23187;SDS011;11762;59.878;17.686;2023-04-24T09:43:03;7.03;;;3.47;;
23187;SDS011;11762;59.878;17.686;2023-04-24T09:45:35;6.10;;;2.70;;
23187;SDS011;11762;59.878;17.686;2023-04-24T09:48:02;7.90;;;2.77;;
23187;SDS011;11762;59.878;17.686;2023-04-24T09:50:31;5.27;;;2.80;;
23187;SDS011;11762;59.878;17.686;2023-04-24T09:53:02;4.67;;;2.57;;
23187;SDS011;11762;59.878;17.686;2023-04-24T09:55:32;7.70;;;3.37;;
23187;SDS011;11762;59.878;17.686;2023-04-24T09:58:01;4.27;;;2.47;;
23187;SDS011;11762;59.878;17.686;2023-04-24T10:00:31;13.47;;;3.53;;
23187;SDS011;11762;59.878;17.686;2023-04-24T10:02:59;10.57;;;2.87;;
23187;SDS011;11762;59.878;17.686;2023-04-24T10:05:28;14.80;;;7.00;;
23187;SDS011;11762;59.878;17.686;2023-04-24T10:07:56;5.20;;;2.60;;
23187;SDS011;11762;59.878;17.686;2023-04-24T10:10:24;6.40;;;3.30;;
23187;SDS011;11762;59.878;17.686;2023-04-24T10:12:51;8.17;;;3.17;;
23187;SDS011;11762;59.878;17.686;2023-04-24T10:15:21;4.17;;;2.87;;
23187;SDS011;11762;59.878;17.686;2023-04-24T10:17:48;4.73;;;2.70;;
23187;SDS011;11762;59.878;17.686;2023-04-24T10:20:19;6.33;;;3.13;;
23187;SDS011;11762;59.878;17.686;2023-04-24T10:22:47;4.50;;;2.90;;
23187;SDS011;11762;59.878;17.686;2023-04-24T10:25:16;4.47;;;2.47;;
23187;SDS011;11762;59.878;17.686;2023-04-24T10:27:46;5.20;;;2.83;;
23187;SDS011;11762;59.878;17.686;2023-04-24T10:30:14;5.37;;;2.60;;
23187;SDS011;11762;59.878;17.686;2023-04-24T10:32:43;4.53;;;2.70;;
23187;SDS011;11762;59.878;17.686;2023-04-24T10:35:11;5.33;;;3.00;;
23187;SDS011;11762;59.878;17.686;2023-04-24T10:37:41;5.20;;;2.93;;
23187;SDS011;11762;59.878;17.686;2023-04-24T10:40:10;7.67;;;3.13;;
23187;SDS011;11762;59.878;17.686;2023-04-24T10:42:42;7.23;;;3.20;;
23187;SDS011;11762;59.878;17.686;2023-04-24T10:45:16;4.90;;;2.87;;
23187;SDS011;11762;59.878;17.686;2023-04-24T10:50:41;5.87;;;2.97;;
23187;SDS011;11762;59.878;17.686;2023-04-24T10:53:14;6.30;;;3.53;;
23187;SDS011;11762;59.878;17.686;2023-04-24T10:55:43;6.60;;;3.40;;
23187;SDS011;11762;59.878;17.686;2023-04-24T10:58:11;6.03;;;3.00;;
23187;SDS011;11762;59.878;17.686;2023-04-24T11:00:40;8.00;;;3.70;;
23187;SDS011;11762;59.878;17.686;2023-04-24T11:03:23;6.15;;;3.42;;
23187;SDS011;11762;59.878;17.686;2023-04-24T11:05:52;7.83;;;3.00;;
23187;SDS011;11762;59.878;17.686;2023-04-24T11:08:25;4.87;;;2.63;;
23187;SDS011;11762;59.878;17.686;2023-04-24T11:10:55;6.90;;;2.57;;
23187;SDS011;11762;59.878;17.686;2023-04-24T11:13:24;3.90;;;2.50;;
23187;SDS011;11762;59.878;17.686;2023-04-24T11:18:43;6.57;;;2.87;;
23187;SDS011;11762;59.878;17.686;2023-04-24T11:21:16;6.50;;;3.00;;
23187;SDS011;11762;59.878;17.686;2023-04-24T11:23:44;4.40;;;2.43;;
23187;SDS011;11762;59.878;17.686;2023-04-24T11:26:12;4.90;;;2.80;;
23187;SDS011;11762;59.878;17.686;2023-04-24T11:28:47;7.90;;;2.80;;
23187;SDS011;11762;59.878;17.686;2023-04-24T11:34:06;4.83;;;2.53;;
23187;SDS011;11762;59.878;17.686;2023-04-24T11:36:37;5.00;;;3.37;;
23187;SDS011;11762;59.878;17.686;2023-04-24T11:39:05;7.20;;;3.30;;
23187;SDS011;11762;59.878;17.686;2023-04-24T11:41:33;7.83;;;3.00;;
23187;SDS011;11762;59.878;17.686;2023-04-24T11:44:00;6.83;;;2.70;;
23187;SDS011;11762;59.878;17.686;2023-04-24T11:46:28;4.70;;;2.93;;
23187;SDS011;11762;59.878;17.686;2023-04-24T11:48:57;7.00;;;3.67;;
23187;SDS011;11762;59.878;17.686;2023-04-24T11:51:26;8.67;;;3.10;;
23187;SDS011;11762;59.878;17.686;2023-04-24T11:53:54;6.90;;;3.23;;
23187;SDS011;11762;59.878;17.686;2023-04-24T11:56:21;6.30;;;3.13;;
23187;SDS011;11762;59.878;17.686;2023-04-24T11:58:51;6.33;;;3.47;;
23187;SDS011;11762;59.878;17.686;2023-04-24T12:01:19;6.17;;;3.43;;
23187;SDS011;11762;59.878;17.686;2023-04-24T12:03:47;9.50;;;3.67;;
23187;SDS011;11762;59.878;17.686;2023-04-24T12:06:16;7.60;;;3.37;;
23187;SDS011;11762;59.878;17.686;2023-04-24T12:08:47;6.37;;;3.40;;
23187;SDS011;11762;59.878;17.686;2023-04-24T12:11:15;7.67;;;3.83;;
23187;SDS011;11762;59.878;17.686;2023-04-24T12:13:46;5.63;;;3.57;;
23187;SDS011;11762;59.878;17.686;2023-04-24T12:16:13;5.27;;;3.47;;
23187;SDS011;11762;59.878;17.686;2023-04-24T12:18:43;6.10;;;3.17;;
23187;SDS011;11762;59.878;17.686;2023-04-24T12:21:17;6.60;;;3.27;;
23187;SDS011;11762;59.878;17.686;2023-04-24T12:23:47;6.10;;;4.03;;
23187;SDS011;11762;59.878;17.686;2023-04-24T12:26:16;5.70;;;3.13;;
23187;SDS011;11762;59.878;17.686;2023-04-24T12:28:46;8.23;;;3.80;;
23187;SDS011;11762;59.878;17.686;2023-04-24T12:31:14;6.17;;;3.13;;
23187;SDS011;11762;59.878;17.686;2023-04-24T12:33:41;8.67;;;5.67;;
23187;SDS011;11762;59.878;17.686;2023-04-24T12:36:09;5.90;;;3.53;;
23187;SDS011;11762;59.878;17.686;2023-04-24T12:38:37;6.37;;;3.70;;
23187;SDS011;11762;59.878;17.686;2023-04-24T12:41:08;5.00;;;3.00;;
23187;SDS011;11762;59.878;17.686;2023-04-24T12:43:36;5.33;;;3.37;;
23187;SDS011;11762;59.878;17.686;2023-04-24T12:46:04;4.93;;;3.10;;
23187;SDS011;11762;59.878;17.686;2023-04-24T12:48:31;9.33;;;3.30;;
23187;SDS011;11762;59.878;17.686;2023-04-24T12:50:58;5.70;;;2.90;;
23187;SDS011;11762;59.878;17.686;2023-04-24T12:53:27;5.83;;;3.20;;
23187;SDS011;11762;59.878;17.686;2023-04-24T12:55:56;8.67;;;3.60;;
23187;SDS011;11762;59.878;17.686;2023-04-24T12:58:25;5.60;;;3.03;;
23187;SDS011;11762;59.878;17.686;2023-04-24T13:00:52;6.13;;;3.50;;
23187;SDS011;11762;59.878;17.686;2023-04-24T13:03:19;6.27;;;2.97;;
23187;SDS011;11762;59.878;17.686;2023-04-24T13:05:47;6.27;;;3.37;;
23187;SDS011;11762;59.878;17.686;2023-04-24T13:08:14;8.30;;;3.83;;
23187;SDS011;11762;59.878;17.686;2023-04-24T13:10:41;8.27;;;3.77;;
23187;SDS011;11762;59.878;17.686;2023-04-24T13:13:08;7.17;;;3.87;;
23187;SDS011;11762;59.878;17.686;2023-04-24T13:15:37;6.80;;;3.87;;
23187;SDS011;11762;59.878;17.686;2023-04-24T13:18:04;8.13;;;3.73;;
23187;SDS011;11762;59.878;17.686;2023-04-24T13:20:31;9.10;;;3.90;;
23187;SDS011;11762;59.878;17.686;2023-04-24T13:23:00;8.00;;;3.83;;
23187;SDS011;11762;59.878;17.686;2023-04-24T13:25:27;6.00;;;3.80;;
23187;SDS011;11762;59.878;17.686;2023-04-24T13:27:57;7.30;;;4.13;;
23187;SDS011;11762;59.878;17.686;2023-04-24T13:30:24;8.03;;;4.03;;
23187;SDS011;11762;59.878;17.686;2023-04-24T13:32:52;7.17;;;3.37;;
23187;SDS011;11762;59.878;17.686;2023-04-24T13:35:19;5.63;;;3.53;;
23187;SDS011;11762;59.878;17.686;2023-04-24T13:37:46;6.93;;;3.43;;
23187;SDS011;11762;59.878;17.686;2023-04-24T13:40:13;8.47;;;3.93;;
23187;SDS011;11762;59.878;17.686;2023-04-24T13:42:40;6.63;;;3.57;;
23187;SDS011;11762;59.878;17.686;2023-04-24T13:45:07;6.27;;;3.57;;
23187;SDS011;11762;59.878;17.686;2023-04-24T13:47:35;8.37;;;3.37;;
23187;SDS011;11762;59.878;17.686;2023-04-24T13:50:07;6.43;;;3.80;;
23187;SDS011;11762;59.878;17.686;2023-04-24T13:52:35;6.37;;;3.77;;
23187;SDS011;11762;59.878;17.686;2023-04-24T13:55:02;4.60;;;3.10;;
23187;SDS011;11762;59.878;17.686;2023-04-24T13:57:29;6.07;;;3.50;;
23187;SDS011;11762;59.878;17.686;2023-04-24T13:59:57;6.57;;;3.57;;
23187;SDS011;11762;59.878;17.686;2023-04-24T14:02:26;6.30;;;3.20;;
23187;SDS011;11762;59.878;17.686;2023-04-24T14:04:54;7.40;;;3.47;;
23187;SDS011;11762;59.878;17.686;2023-04-24T14:07:22;6.77;;;3.40;;
23187;SDS011;11762;59.878;17.686;2023-04-24T14:09:49;6.73;;;3.03;;
23187;SDS011;11762;59.878;17.686;2023-04-24T14:12:16;6.67;;;3.67;;
23187;SDS011;11762;59.878;17.686;2023-04-24T14:14:45;8.97;;;3.30;;
23187;SDS011;11762;59.878;17.686;2023-04-24T14:17:13;9.30;;;3.57;;
23187;SDS011;11762;59.878;17.686;2023-04-24T14:19:40;5.47;;;3.13;;
23187;SDS011;11762;59.878;17.686;2023-04-24T14:22:07;6.80;;;3.50;;
23187;SDS011;11762;59.878;17.686;2023-04-24T14:24:37;9.87;;;3.77;;
23187;SDS011;11762;59.878;17.686;2023-04-24T14:27:04;5.87;;;3.70;;
23187;SDS011;11762;59.878;17.686;2023-04-24T14:29:31;6.67;;;3.70;;
23187;SDS011;11762;59.878;17.686;2023-04-24T14:31:58;7.23;;;3.80;;
23187;SDS011;11762;59.878;17.686;2023-04-24T14:34:25;5.40;;;3.43;;
23187;SDS011;11762;59.878;17.686;2023-04-24T14:36:52;7.63;;;3.23;;
23187;SDS011;11762;59.878;17.686;2023-04-24T14:39:20;7.20;;;3.67;;
23187;SDS011;11762;59.878;17.686;2023-04-24T14:41:48;5.43;;;3.10;;
23187;SDS011;11762;59.878;17.686;2023-04-24T14:44:15;5.63;;;3.20;;
23187;SDS011;11762;59.878;17.686;2023-04-24T14:46:42;9.33;;;3.50;;
23187;SDS011;11762;59.878;17.686;2023-04-24T14:49:09;6.07;;;3.53;;